createdAt,value
2019-04-03T00:00:13.247Z,25.52
2019-04-03T00:02:42.591Z,24.37
2019-04-03T00:05:11.641Z,24.23
2019-04-03T00:07:40.710Z,23.07
2019-04-03T00:10:10.069Z,23.98
2019-04-03T00:12:41.060Z,21.80
2019-04-03T00:15:13.240Z,21.23
2019-04-03T00:17:41.526Z,20.80
2019-04-03T00:20:10.892Z,20.05
2019-04-03T00:22:40.177Z,20.52
2019-04-03T00:25:09.521Z,19.45
2019-04-03T00:27:38.997Z,19.15
2019-04-03T00:30:08.361Z,18.70
2019-04-03T00:32:37.454Z,17.12
2019-04-03T00:35:07.558Z,17.70
2019-04-03T00:37:36.626Z,17.15
2019-04-03T00:40:06.816Z,16.75
2019-04-03T00:42:35.889Z,16.32
2019-04-03T00:45:06.414Z,15.38
2019-04-03T00:47:35.503Z,15.30
2019-04-03T00:50:05.805Z,14.85
2019-04-03T00:52:36.035Z,14.78
2019-04-03T00:55:06.441Z,14.63
2019-04-03T00:57:35.975Z,14.00
2019-04-03T01:00:15.371Z,13.95
2019-04-03T01:02:44.441Z,12.82
2019-04-03T01:05:13.540Z,13.55
2019-04-03T01:07:42.635Z,12.53
2019-04-03T01:10:11.681Z,12.20
2019-04-03T01:12:40.925Z,12.05
2019-04-03T01:15:10.300Z,12.33
2019-04-03T01:17:39.822Z,11.78
2019-04-03T01:20:09.208Z,11.08
2019-04-03T01:22:38.623Z,10.95
2019-04-03T01:25:09.011Z,10.82
2019-04-03T01:27:41.246Z,10.90
2019-04-03T01:30:09.633Z,10.40
2019-04-03T01:32:38.683Z,9.85
2019-04-03T01:35:09.516Z,9.58
2019-04-03T01:37:39.153Z,9.23
2019-04-03T01:40:08.211Z,8.88
2019-04-03T01:42:37.261Z,8.68
2019-04-03T01:45:06.320Z,8.93
2019-04-03T01:47:35.416Z,8.50
2019-04-03T01:50:05.963Z,8.55
2019-04-03T01:52:35.008Z,8.23
2019-04-03T01:55:05.380Z,8.38
2019-04-03T01:57:36.244Z,7.65
2019-04-03T02:00:08.330Z,7.47
2019-04-03T02:02:38.726Z,7.15
2019-04-03T02:05:08.489Z,7.40
2019-04-03T02:07:37.891Z,7.37
2019-04-03T02:10:18.442Z,6.28
2019-04-03T02:12:48.835Z,6.90
2019-04-03T02:15:21.206Z,6.37
2019-04-03T02:17:49.750Z,6.05
2019-04-03T02:20:19.132Z,7.17
2019-04-03T02:22:48.186Z,6.45
2019-04-03T02:25:17.388Z,6.20
2019-04-03T02:27:46.657Z,6.45
2019-04-03T02:30:15.713Z,6.08
2019-04-03T02:32:44.767Z,6.10
2019-04-03T02:35:13.827Z,5.72
2019-04-03T02:37:43.107Z,5.50
2019-04-03T02:40:12.309Z,5.28
2019-04-03T02:42:42.432Z,5.22
2019-04-03T02:45:12.032Z,5.35
2019-04-03T02:47:41.433Z,5.30
2019-04-03T02:50:13.930Z,5.03
2019-04-03T02:52:41.572Z,5.20
2019-04-03T02:55:11.000Z,5.08
2019-04-03T02:57:40.584Z,4.80
2019-04-03T03:00:09.696Z,4.83
2019-04-03T03:02:38.747Z,4.58
2019-04-03T03:05:08.068Z,4.97
2019-04-03T03:07:37.471Z,5.03
2019-04-03T03:10:07.548Z,4.45
2019-04-03T03:12:38.017Z,4.37
2019-04-03T03:15:10.699Z,4.10
2019-04-03T03:17:38.724Z,4.30
2019-04-03T03:20:08.131Z,3.83
2019-04-03T03:22:38.136Z,3.75
2019-04-03T03:25:07.564Z,3.85
2019-04-03T03:27:40.766Z,4.05
2019-04-03T03:30:30.567Z,4.10
2019-04-03T03:32:38.921Z,3.75
2019-04-03T03:35:14.476Z,3.70
2019-04-03T03:37:39.475Z,3.87
2019-04-03T03:40:08.610Z,3.52
2019-04-03T03:42:37.663Z,3.67
2019-04-03T03:45:07.015Z,3.25
2019-04-03T03:47:37.198Z,3.60
2019-04-03T03:50:07.317Z,3.47
2019-04-03T03:52:39.071Z,3.50
2019-04-03T03:55:08.506Z,3.42
2019-04-03T03:57:39.691Z,3.10
2019-04-03T04:00:09.419Z,3.47
2019-04-03T04:02:43.736Z,3.10
2019-04-03T04:05:12.175Z,3.45
2019-04-03T04:07:41.763Z,2.80
2019-04-03T04:10:11.018Z,2.87
2019-04-03T04:12:41.876Z,3.10
2019-04-03T04:15:11.852Z,3.20
2019-04-03T04:17:41.435Z,3.50
2019-04-03T04:20:11.220Z,3.20
2019-04-03T04:22:40.592Z,3.05
2019-04-03T04:25:09.784Z,2.92
2019-04-03T04:27:39.550Z,2.90
2019-04-03T04:30:09.046Z,2.83
2019-04-03T04:32:38.446Z,2.98
2019-04-03T04:35:10.707Z,2.95
2019-04-03T04:37:40.363Z,2.55
2019-04-03T04:40:09.531Z,2.62
2019-04-03T04:42:38.926Z,2.55
2019-04-03T04:45:07.994Z,2.80
2019-04-03T04:47:37.039Z,2.67
2019-04-03T04:50:06.094Z,2.47
2019-04-03T04:52:35.162Z,2.70
2019-04-03T04:55:04.766Z,2.37
2019-04-03T04:57:33.835Z,4.47
2019-04-03T05:00:04.029Z,9.53
2019-04-03T05:02:33.076Z,7.90
2019-04-03T05:05:02.163Z,11.53
2019-04-03T05:07:31.529Z,14.60
